sensor_id;sensor_type;location;lat;lon;timestamp;temperature;humidity
1994;DHT22;998;49.906;10.908;2022-12-10T00:00:00;-0.10;99.90
1994;DHT22;998;49.906;10.908;2022-12-10T00:02:28;0.00;99.90
1994;DHT22;998;49.906;10.908;2022-12-10T00:04:56;0.00;99.90
1994;DHT22;998;49.906;10.908;2022-12-10T00:07:23;0.00;99.90
1994;DHT22;998;49.906;10.908;2022-12-10T00:09:52;-0.10;99.90
1994;DHT22;998;49.906;10.908;2022-12-10T00:12:19;-0.10;99.90
1994;DHT22;998;49.906;10.908;2022-12-10T00:14:47;-0.10;99.90
1994;DHT22;998;49.906;10.908;2022-12-10T00:17:14;-0.10;99.90
1994;DHT22;998;49.906;10.908;2022-12-10T00:19:41;-0.10;99.90
1994;DHT22;998;49.906;10.908;2022-12-10T00:22:09;-0.10;99.90
1994;DHT22;998;49.906;10.908;2022-12-10T00:24:36;-0.10;99.90
1994;DHT22;998;49.906;10.908;2022-12-10T00:27:05;-0.10;99.90
1994;DHT22;998;49.906;10.908;2022-12-10T00:29:33;-0.10;99.90
1994;DHT22;998;49.906;10.908;2022-12-10T00:32:00;-0.10;99.90
1994;DHT22;998;49.906;10.908;2022-12-10T00:34:31;-0.10;99.90
1994;DHT22;998;49.906;10.908;2022-12-10T00:36:58;-0.10;99.90
1994;DHT22;998;49.906;10.908;2022-12-10T00:39:26;-0.20;99.90
1994;DHT22;998;49.906;10.908;2022-12-10T00:41:53;-0.10;99.90
1994;DHT22;998;49.906;10.908;2022-12-10T00:44:22;-0.10;99.90
1994;DHT22;998;49.906;10.908;2022-12-10T00:46:50;-0.10;99.90
1994;DHT22;998;49.906;10.908;2022-12-10T00:49:17;-0.10;99.90
1994;DHT22;998;49.906;10.908;2022-12-10T00:51:48;-0.10;99.90
1994;DHT22;998;49.906;10.908;2022-12-10T00:54:16;-0.10;99.90
1994;DHT22;998;49.906;10.908;2022-12-10T00:56:43;-0.10;99.90
1994;DHT22;998;49.906;10.908;2022-12-10T00:59:10;-0.10;99.90
1994;DHT22;998;49.906;10.908;2022-12-10T01:01:42;-0.10;99.90
1994;DHT22;998;49.906;10.908;2022-12-10T01:04:11;-0.10;99.90
1994;DHT22;998;49.906;10.908;2022-12-10T01:06:42;-0.10;99.90
1994;DHT22;998;49.906;10.908;2022-12-10T01:09:12;-0.10;99.90
1994;DHT22;998;49.906;10.908;2022-12-10T01:11:41;-0.10;99.90
1994;DHT22;998;49.906;10.908;2022-12-10T01:14:10;-0.10;99.90
1994;DHT22;998;49.906;10.908;2022-12-10T01:16:39;-0.10;99.90
1994;DHT22;998;49.906;10.908;2022-12-10T01:19:06;-0.10;99.90
1994;DHT22;998;49.906;10.908;2022-12-10T01:21:34;-0.10;99.90
1994;DHT22;998;49.906;10.908;2022-12-10T01:24:02;-0.10;99.90
1994;DHT22;998;49.906;10.908;2022-12-10T01:26:31;-0.10;99.90
1994;DHT22;998;49.906;10.908;2022-12-10T01:28:59;0.00;99.90
1994;DHT22;998;49.906;10.908;2022-12-10T01:31:28;-0.10;99.90
1994;DHT22;998;49.906;10.908;2022-12-10T01:33:58;-0.10;99.90
1994;DHT22;998;49.906;10.908;2022-12-10T01:36:27;0.00;99.90
1994;DHT22;998;49.906;10.908;2022-12-10T01:38:55;0.00;99.90
1994;DHT22;998;49.906;10.908;2022-12-10T01:41:25;0.00;99.90
1994;DHT22;998;49.906;10.908;2022-12-10T01:43:55;0.00;99.90
1994;DHT22;998;49.906;10.908;2022-12-10T01:46:24;0.00;99.90
1994;DHT22;998;49.906;10.908;2022-12-10T01:48:52;0.00;99.90
1994;DHT22;998;49.906;10.908;2022-12-10T01:51:23;0.00;99.90
1994;DHT22;998;49.906;10.908;2022-12-10T01:53:51;0.00;99.90
1994;DHT22;998;49.906;10.908;2022-12-10T01:56:19;0.00;99.90
1994;DHT22;998;49.906;10.908;2022-12-10T01:58:48;0.10;99.90
1994;DHT22;998;49.906;10.908;2022-12-10T02:01:24;0.10;99.90
1994;DHT22;998;49.906;10.908;2022-12-10T02:04:00;0.10;99.90
1994;DHT22;998;49.906;10.908;2022-12-10T02:06:45;0.10;99.90
1994;DHT22;998;49.906;10.908;2022-12-10T02:09:20;0.20;99.90
1994;DHT22;998;49.906;10.908;2022-12-10T02:11:58;0.20;99.90
1994;DHT22;998;49.906;10.908;2022-12-10T02:14:32;0.20;99.90
1994;DHT22;998;49.906;10.908;2022-12-10T02:17:06;0.20;99.90
1994;DHT22;998;49.906;10.908;2022-12-10T02:22:31;0.20;99.90
1994;DHT22;998;49.906;10.908;2022-12-10T02:24:59;0.20;99.90
1994;DHT22;998;49.906;10.908;2022-12-10T02:27:31;0.20;99.90
1994;DHT22;998;49.906;10.908;2022-12-10T02:30:02;0.20;99.90
1994;DHT22;998;49.906;10.908;2022-12-10T02:32:33;0.20;99.90
1994;DHT22;998;49.906;10.908;2022-12-10T02:35:06;0.20;99.90
1994;DHT22;998;49.906;10.908;2022-12-10T02:37:36;0.30;99.90
1994;DHT22;998;49.906;10.908;2022-12-10T02:40:08;0.20;99.90
1994;DHT22;998;49.906;10.908;2022-12-10T02:42:39;0.20;99.90
1994;DHT22;998;49.906;10.908;2022-12-10T02:45:10;0.20;99.90
1994;DHT22;998;49.906;10.908;2022-12-10T02:47:39;0.20;99.90
1994;DHT22;998;49.906;10.908;2022-12-10T02:50:08;0.20;99.90
1994;DHT22;998;49.906;10.908;2022-12-10T02:52:36;0.20;99.90
1994;DHT22;998;49.906;10.908;2022-12-10T02:55:04;0.20;99.90
1994;DHT22;998;49.906;10.908;2022-12-10T02:57:36;0.20;99.90
1994;DHT22;998;49.906;10.908;2022-12-10T03:00:10;0.20;99.90
1994;DHT22;998;49.906;10.908;2022-12-10T03:02:57;0.30;99.90
1994;DHT22;998;49.906;10.908;2022-12-10T03:05:34;0.30;99.90
1994;DHT22;998;49.906;10.908;2022-12-10T03:08:07;0.30;99.90
1994;DHT22;998;49.906;10.908;2022-12-10T03:10:42;0.20;99.90
1994;DHT22;998;49.906;10.908;2022-12-10T03:13:14;0.20;99.90
1994;DHT22;998;49.906;10.908;2022-12-10T03:15:44;0.20;99.90
1994;DHT22;998;49.906;10.908;2022-12-10T03:18:15;0.20;99.90
1994;DHT22;998;49.906;10.908;2022-12-10T03:20:45;0.20;99.90
1994;DHT22;998;49.906;10.908;2022-12-10T03:23:15;0.30;99.90
1994;DHT22;998;49.906;10.908;2022-12-10T03:25:44;0.30;99.90
1994;DHT22;998;49.906;10.908;2022-12-10T03:28:14;0.30;99.90
1994;DHT22;998;49.906;10.908;2022-12-10T03:30:44;0.30;99.90
1994;DHT22;998;49.906;10.908;2022-12-10T03:33:13;0.30;99.90
1994;DHT22;998;49.906;10.908;2022-12-10T03:35:41;0.30;99.90
1994;DHT22;998;49.906;10.908;2022-12-10T03:38:10;0.30;99.90
1994;DHT22;998;49.906;10.908;2022-12-10T03:40:37;0.30;99.90
1994;DHT22;998;49.906;10.908;2022-12-10T03:43:05;0.30;99.90
1994;DHT22;998;49.906;10.908;2022-12-10T03:45:32;0.30;99.90
1994;DHT22;998;49.906;10.908;2022-12-10T03:48:01;0.30;99.90
1994;DHT22;998;49.906;10.908;2022-12-10T03:50:28;0.40;99.90
1994;DHT22;998;49.906;10.908;2022-12-10T03:52:56;0.30;99.90
1994;DHT22;998;49.906;10.908;2022-12-10T03:55:23;0.30;99.90
1994;DHT22;998;49.906;10.908;2022-12-10T03:57:50;0.30;99.90
1994;DHT22;998;49.906;10.908;2022-12-10T04:00:18;0.30;99.90
1994;DHT22;998;49.906;10.908;2022-12-10T04:02:45;0.30;99.90
1994;DHT22;998;49.906;10.908;2022-12-10T04:05:14;0.30;99.90
1994;DHT22;998;49.906;10.908;2022-12-10T04:07:42;0.30;99.90
1994;DHT22;998;49.906;10.908;2022-12-10T04:10:09;0.30;99.90
1994;DHT22;998;49.906;10.908;2022-12-10T04:12:36;0.30;99.90
1994;DHT22;998;49.906;10.908;2022-12-10T04:15:05;0.20;99.90
1994;DHT22;998;49.906;10.908;2022-12-10T04:17:49;0.30;99.90
1994;DHT22;998;49.906;10.908;2022-12-10T04:20:18;0.30;99.90
1994;DHT22;998;49.906;10.908;2022-12-10T04:23:03;0.20;99.90
1994;DHT22;998;49.906;10.908;2022-12-10T04:25:47;0.20;99.90
1994;DHT22;998;49.906;10.908;2022-12-10T04:28:32;0.20;99.90
1994;DHT22;998;49.906;10.908;2022-12-10T04:30:59;0.20;99.90
1994;DHT22;998;49.906;10.908;2022-12-10T04:33:27;0.20;99.90
1994;DHT22;998;49.906;10.908;2022-12-10T04:35:56;0.20;99.90
1994;DHT22;998;49.906;10.908;2022-12-10T04:38:23;0.20;99.90
1994;DHT22;998;49.906;10.908;2022-12-10T04:40:50;0.20;99.90
1994;DHT22;998;49.906;10.908;2022-12-10T04:43:18;0.20;99.90
1994;DHT22;998;49.906;10.908;2022-12-10T04:45:45;0.30;99.90
1994;DHT22;998;49.906;10.908;2022-12-10T04:48:12;0.30;99.90
1994;DHT22;998;49.906;10.908;2022-12-10T04:50:40;0.30;99.90
1994;DHT22;998;49.906;10.908;2022-12-10T04:53:09;0.30;99.90
1994;DHT22;998;49.906;10.908;2022-12-10T04:55:36;0.30;99.90
1994;DHT22;998;49.906;10.908;2022-12-10T04:58:03;0.30;99.90
1994;DHT22;998;49.906;10.908;2022-12-10T05:00:31;0.30;99.90
1994;DHT22;998;49.906;10.908;2022-12-10T05:02:58;0.30;99.90
1994;DHT22;998;49.906;10.908;2022-12-10T05:05:26;0.30;99.90
1994;DHT22;998;49.906;10.908;2022-12-10T05:07:53;0.20;99.90
1994;DHT22;998;49.906;10.908;2022-12-10T05:10:22;0.30;99.90
1994;DHT22;998;49.906;10.908;2022-12-10T05:12:49;0.30;99.90
1994;DHT22;998;49.906;10.908;2022-12-10T05:15:16;0.30;99.90
1994;DHT22;998;49.906;10.908;2022-12-10T05:17:44;0.30;99.90
1994;DHT22;998;49.906;10.908;2022-12-10T05:20:11;0.30;99.90
1994;DHT22;998;49.906;10.908;2022-12-10T05:22:39;0.30;99.90
1994;DHT22;998;49.906;10.908;2022-12-10T05:25:25;0.30;99.90
1994;DHT22;998;49.906;10.908;2022-12-10T05:27:52;0.40;99.90
1994;DHT22;998;49.906;10.908;2022-12-10T05:30:19;0.40;99.90
1994;DHT22;998;49.906;10.908;2022-12-10T05:32:47;0.40;99.90
1994;DHT22;998;49.906;10.908;2022-12-10T05:35:14;0.40;99.90
1994;DHT22;998;49.906;10.908;2022-12-10T05:37:42;0.40;99.90
1994;DHT22;998;49.906;10.908;2022-12-10T05:40:10;0.40;99.90
1994;DHT22;998;49.906;10.908;2022-12-10T05:42:39;0.40;99.90
1994;DHT22;998;49.906;10.908;2022-12-10T05:45:07;0.40;99.90
1994;DHT22;998;49.906;10.908;2022-12-10T05:47:35;0.40;99.90
1994;DHT22;998;49.906;10.908;2022-12-10T05:50:03;0.40;99.90
1994;DHT22;998;49.906;10.908;2022-12-10T05:52:30;0.40;99.90
1994;DHT22;998;49.906;10.908;2022-12-10T05:54:58;0.40;99.90
1994;DHT22;998;49.906;10.908;2022-12-10T05:57:25;0.40;99.90
1994;DHT22;998;49.906;10.908;2022-12-10T05:59:54;0.40;99.90
1994;DHT22;998;49.906;10.908;2022-12-10T06:02:21;0.40;99.90
1994;DHT22;998;49.906;10.908;2022-12-10T06:04:49;0.40;99.90
1994;DHT22;998;49.906;10.908;2022-12-10T06:07:16;0.40;99.90
1994;DHT22;998;49.906;10.908;2022-12-10T06:09:44;0.40;99.90
1994;DHT22;998;49.906;10.908;2022-12-10T06:12:11;0.40;99.90
1994;DHT22;998;49.906;10.908;2022-12-10T06:14:38;0.40;99.90
1994;DHT22;998;49.906;10.908;2022-12-10T06:17:07;0.40;99.90
1994;DHT22;998;49.906;10.908;2022-12-10T06:19:35;0.30;99.90
1994;DHT22;998;49.906;10.908;2022-12-10T06:22:02;0.30;99.90
1994;DHT22;998;49.906;10.908;2022-12-10T06:24:29;0.20;99.90
1994;DHT22;998;49.906;10.908;2022-12-10T06:26:57;0.20;99.90
1994;DHT22;998;49.906;10.908;2022-12-10T06:29:24;0.20;99.90
1994;DHT22;998;49.906;10.908;2022-12-10T06:31:52;0.30;99.90
1994;DHT22;998;49.906;10.908;2022-12-10T06:34:20;0.30;99.90
1994;DHT22;998;49.906;10.908;2022-12-10T06:36:48;0.30;99.90
1994;DHT22;998;49.906;10.908;2022-12-10T06:39:15;0.30;99.90
1994;DHT22;998;49.906;10.908;2022-12-10T06:41:43;0.30;99.90
1994;DHT22;998;49.906;10.908;2022-12-10T06:44:11;0.30;99.90
1994;DHT22;998;49.906;10.908;2022-12-10T06:46:40;0.40;99.90
1994;DHT22;998;49.906;10.908;2022-12-10T06:49:07;0.40;99.90
1994;DHT22;998;49.906;10.908;2022-12-10T06:51:36;0.30;99.90
1994;DHT22;998;49.906;10.908;2022-12-10T06:54:04;0.30;99.90
1994;DHT22;998;49.906;10.908;2022-12-10T06:56:32;0.30;99.90
1994;DHT22;998;49.906;10.908;2022-12-10T06:58:59;0.40;99.90
1994;DHT22;998;49.906;10.908;2022-12-10T07:01:30;0.40;99.90
1994;DHT22;998;49.906;10.908;2022-12-10T07:03:58;0.40;99.90
1994;DHT22;998;49.906;10.908;2022-12-10T07:06:26;0.40;99.90
1994;DHT22;998;49.906;10.908;2022-12-10T07:08:55;0.40;99.90
1994;DHT22;998;49.906;10.908;2022-12-10T07:11:23;0.40;99.90
1994;DHT22;998;49.906;10.908;2022-12-10T07:13:51;0.40;99.90
1994;DHT22;998;49.906;10.908;2022-12-10T07:16:20;0.40;99.90
1994;DHT22;998;49.906;10.908;2022-12-10T07:18:49;0.50;99.90
1994;DHT22;998;49.906;10.908;2022-12-10T07:21:18;0.50;99.90
1994;DHT22;998;49.906;10.908;2022-12-10T07:23:46;0.50;99.90
1994;DHT22;998;49.906;10.908;2022-12-10T07:26:15;0.50;99.90
1994;DHT22;998;49.906;10.908;2022-12-10T07:28:43;0.50;99.90
1994;DHT22;998;49.906;10.908;2022-12-10T07:31:10;0.50;99.90
1994;DHT22;998;49.906;10.908;2022-12-10T07:33:37;0.50;99.90
1994;DHT22;998;49.906;10.908;2022-12-10T07:36:06;0.50;99.90
1994;DHT22;998;49.906;10.908;2022-12-10T07:38:34;0.50;99.90
1994;DHT22;998;49.906;10.908;2022-12-10T07:41:02;0.50;99.90
1994;DHT22;998;49.906;10.908;2022-12-10T07:43:33;0.50;99.90
1994;DHT22;998;49.906;10.908;2022-12-10T07:46:04;0.50;99.90
1994;DHT22;998;49.906;10.908;2022-12-10T07:48:31;0.60;99.90
1994;DHT22;998;49.906;10.908;2022-12-10T07:51:00;0.60;99.90
1994;DHT22;998;49.906;10.908;2022-12-10T07:53:28;0.60;99.90
1994;DHT22;998;49.906;10.908;2022-12-10T07:55:55;0.60;99.90
1994;DHT22;998;49.906;10.908;2022-12-10T07:58:22;0.60;99.90
1994;DHT22;998;49.906;10.908;2022-12-10T08:00:51;0.60;99.90
1994;DHT22;998;49.906;10.908;2022-12-10T08:03:19;0.60;99.90
1994;DHT22;998;49.906;10.908;2022-12-10T08:05:46;0.60;99.90
1994;DHT22;998;49.906;10.908;2022-12-10T08:08:13;0.60;99.90
1994;DHT22;998;49.906;10.908;2022-12-10T08:10:40;0.60;99.90
1994;DHT22;998;49.906;10.908;2022-12-10T08:13:08;0.70;99.90
1994;DHT22;998;49.906;10.908;2022-12-10T08:15:36;0.60;99.90
1994;DHT22;998;49.906;10.908;2022-12-10T08:18:04;0.70;99.90
1994;DHT22;998;49.906;10.908;2022-12-10T08:20:31;0.70;99.90
1994;DHT22;998;49.906;10.908;2022-12-10T08:22:58;0.70;99.90
1994;DHT22;998;49.906;10.908;2022-12-10T08:25:26;0.70;99.90
1994;DHT22;998;49.906;10.908;2022-12-10T08:27:54;0.70;99.90
1994;DHT22;998;49.906;10.908;2022-12-10T08:30:22;0.70;99.90
1994;DHT22;998;49.906;10.908;2022-12-10T08:32:49;0.70;99.90
1994;DHT22;998;49.906;10.908;2022-12-10T08:35:18;0.80;99.90
1994;DHT22;998;49.906;10.908;2022-12-10T08:37:45;0.70;99.90
1994;DHT22;998;49.906;10.908;2022-12-10T08:40:13;0.70;99.90
1994;DHT22;998;49.906;10.908;2022-12-10T08:42:40;0.80;99.90
1994;DHT22;998;49.906;10.908;2022-12-10T08:45:08;0.80;99.90
1994;DHT22;998;49.906;10.908;2022-12-10T08:47:36;0.80;99.90
1994;DHT22;998;49.906;10.908;2022-12-10T08:50:04;0.80;99.90
1994;DHT22;998;49.906;10.908;2022-12-10T08:52:33;0.80;99.90
1994;DHT22;998;49.906;10.908;2022-12-10T08:55:00;0.80;99.90
1994;DHT22;998;49.906;10.908;2022-12-10T08:57:27;0.80;99.90
1994;DHT22;998;49.906;10.908;2022-12-10T08:59:55;0.80;99.90
1994;DHT22;998;49.906;10.908;2022-12-10T09:02:22;0.80;99.90
1994;DHT22;998;49.906;10.908;2022-12-10T09:04:50;0.80;99.90
1994;DHT22;998;49.906;10.908;2022-12-10T09:07:18;0.80;99.90
1994;DHT22;998;49.906;10.908;2022-12-10T09:09:47;0.90;99.90
1994;DHT22;998;49.906;10.908;2022-12-10T09:12:14;0.90;99.90
1994;DHT22;998;49.906;10.908;2022-12-10T09:14:42;0.90;99.90
1994;DHT22;998;49.906;10.908;2022-12-10T09:17:09;0.90;99.90
1994;DHT22;998;49.906;10.908;2022-12-10T09:19:37;1.00;99.90
1994;DHT22;998;49.906;10.908;2022-12-10T09:22:04;0.90;99.90
1994;DHT22;998;49.906;10.908;2022-12-10T09:24:31;1.00;99.90
1994;DHT22;998;49.906;10.908;2022-12-10T09:27:02;1.00;99.90
1994;DHT22;998;49.906;10.908;2022-12-10T09:29:29;1.00;99.90
1994;DHT22;998;49.906;10.908;2022-12-10T09:31:57;1.00;99.90
1994;DHT22;998;49.906;10.908;2022-12-10T09:34:24;1.10;99.90
1994;DHT22;998;49.906;10.908;2022-12-10T09:36:52;1.10;99.90
1994;DHT22;998;49.906;10.908;2022-12-10T09:39:19;1.10;99.90
1994;DHT22;998;49.906;10.908;2022-12-10T09:42:01;1.20;99.90
1994;DHT22;998;49.906;10.908;2022-12-10T09:44:41;1.20;99.90
1994;DHT22;998;49.906;10.908;2022-12-10T09:47:10;1.20;99.90
1994;DHT22;998;49.906;10.908;2022-12-10T09:49:46;1.30;99.90
1994;DHT22;998;49.906;10.908;2022-12-10T09:52:19;1.30;99.90
1994;DHT22;998;49.906;10.908;2022-12-10T09:54:50;1.40;99.90
1994;DHT22;998;49.906;10.908;2022-12-10T09:57:23;1.30;99.90
1994;DHT22;998;49.906;10.908;2022-12-10T09:59:53;1.40;99.90
1994;DHT22;998;49.906;10.908;2022-12-10T10:02:22;1.40;99.90
1994;DHT22;998;49.906;10.908;2022-12-10T10:04:53;1.40;99.90
1994;DHT22;998;49.906;10.908;2022-12-10T10:07:23;1.50;99.90
1994;DHT22;998;49.906;10.908;2022-12-10T10:09:51;1.40;99.90
1994;DHT22;998;49.906;10.908;2022-12-10T10:12:23;1.40;99.90
1994;DHT22;998;49.906;10.908;2022-12-10T10:14:53;1.40;99.90
1994;DHT22;998;49.906;10.908;2022-12-10T10:17:25;1.40;99.90
1994;DHT22;998;49.906;10.908;2022-12-10T10:19:54;1.30;99.90
1994;DHT22;998;49.906;10.908;2022-12-10T10:22:21;1.30;99.90
1994;DHT22;998;49.906;10.908;2022-12-10T10:24:49;1.30;99.90
1994;DHT22;998;49.906;10.908;2022-12-10T10:27:18;1.30;99.90
1994;DHT22;998;49.906;10.908;2022-12-10T10:29:49;1.30;99.90
1994;DHT22;998;49.906;10.908;2022-12-10T10:32:20;1.30;99.90
1994;DHT22;998;49.906;10.908;2022-12-10T10:34:53;1.30;99.90
1994;DHT22;998;49.906;10.908;2022-12-10T10:37:23;1.40;99.90
1994;DHT22;998;49.906;10.908;2022-12-10T10:39:53;1.60;99.90
1994;DHT22;998;49.906;10.908;2022-12-10T10:42:35;1.80;99.90
1994;DHT22;998;49.906;10.908;2022-12-10T10:45:06;2.00;99.90
1994;DHT22;998;49.906;10.908;2022-12-10T10:48:04;2.20;99.90
1994;DHT22;998;49.906;10.908;2022-12-10T10:50:37;2.30;99.90
1994;DHT22;998;49.906;10.908;2022-12-10T10:53:24;2.40;99.90
1994;DHT22;998;49.906;10.908;2022-12-10T10:55:52;2.40;99.90
1994;DHT22;998;49.906;10.908;2022-12-10T10:58:21;2.40;99.90
1994;DHT22;998;49.906;10.908;2022-12-10T11:01:00;2.40;99.90
1994;DHT22;998;49.906;10.908;2022-12-10T11:03:30;2.40;99.90
1994;DHT22;998;49.906;10.908;2022-12-10T11:05:59;2.40;99.90
1994;DHT22;998;49.906;10.908;2022-12-10T11:08:29;2.50;99.90
1994;DHT22;998;49.906;10.908;2022-12-10T11:11:01;2.50;99.90
1994;DHT22;998;49.906;10.908;2022-12-10T11:13:31;2.50;99.90
1994;DHT22;998;49.906;10.908;2022-12-10T11:16:09;2.50;99.90
1994;DHT22;998;49.906;10.908;2022-12-10T11:18:38;2.50;99.90
1994;DHT22;998;49.906;10.908;2022-12-10T11:21:16;2.50;99.90
1994;DHT22;998;49.906;10.908;2022-12-10T11:23:46;2.50;99.90
1994;DHT22;998;49.906;10.908;2022-12-10T11:26:33;2.50;99.90
1994;DHT22;998;49.906;10.908;2022-12-10T11:29:12;2.50;99.90
1994;DHT22;998;49.906;10.908;2022-12-10T11:31:55;2.40;99.90
1994;DHT22;998;49.906;10.908;2022-12-10T11:34:37;2.50;99.90
1994;DHT22;998;49.906;10.908;2022-12-10T11:37:16;2.50;99.90
1994;DHT22;998;49.906;10.908;2022-12-10T11:39:56;2.50;99.90
1994;DHT22;998;49.906;10.908;2022-12-10T11:42:34;2.40;99.90
1994;DHT22;998;49.906;10.908;2022-12-10T11:45:10;2.40;99.90
1994;DHT22;998;49.906;10.908;2022-12-10T11:47:50;2.50;99.90
1994;DHT22;998;49.906;10.908;2022-12-10T11:50:27;2.50;99.90
1994;DHT22;998;49.906;10.908;2022-12-10T11:53:13;2.50;99.90
1994;DHT22;998;49.906;10.908;2022-12-10T11:55:50;2.50;99.90
1994;DHT22;998;49.906;10.908;2022-12-10T11:58:33;2.40;99.90
1994;DHT22;998;49.906;10.908;2022-12-10T12:01:09;2.30;99.90
1994;DHT22;998;49.906;10.908;2022-12-10T12:06:54;2.40;99.90
1994;DHT22;998;49.906;10.908;2022-12-10T12:09:33;2.40;99.90
1994;DHT22;998;49.906;10.908;2022-12-10T12:12:16;2.40;99.90
1994;DHT22;998;49.906;10.908;2022-12-10T12:14:50;2.40;99.90
1994;DHT22;998;49.906;10.908;2022-12-10T12:17:21;2.30;99.90
1994;DHT22;998;49.906;10.908;2022-12-10T12:19:54;2.30;99.90
1994;DHT22;998;49.906;10.908;2022-12-10T12:22:25;2.40;99.90
1994;DHT22;998;49.906;10.908;2022-12-10T12:24:57;2.30;99.90
1994;DHT22;998;49.906;10.908;2022-12-10T12:27:28;2.40;99.90
1994;DHT22;998;49.906;10.908;2022-12-10T12:30:04;2.40;99.90
1994;DHT22;998;49.906;10.908;2022-12-10T12:32:39;2.40;99.90
1994;DHT22;998;49.906;10.908;2022-12-10T12:35:13;2.30;99.90
1994;DHT22;998;49.906;10.908;2022-12-10T12:37:45;2.20;99.90
1994;DHT22;998;49.906;10.908;2022-12-10T12:40:16;2.20;99.90
1994;DHT22;998;49.906;10.908;2022-12-10T12:42:53;2.20;99.90
1994;DHT22;998;49.906;10.908;2022-12-10T12:45:33;2.20;99.90
1994;DHT22;998;49.906;10.908;2022-12-10T12:48:14;2.20;99.90
1994;DHT22;998;49.906;10.908;2022-12-10T12:50:47;2.20;99.90
1994;DHT22;998;49.906;10.908;2022-12-10T12:53:17;2.30;99.90
1994;DHT22;998;49.906;10.908;2022-12-10T12:55:53;2.30;99.90
1994;DHT22;998;49.906;10.908;2022-12-10T12:58:28;2.20;99.90
1994;DHT22;998;49.906;10.908;2022-12-10T13:01:05;2.20;99.90
1994;DHT22;998;49.906;10.908;2022-12-10T13:03:35;2.30;99.90
1994;DHT22;998;49.906;10.908;2022-12-10T13:06:18;2.20;99.90
1994;DHT22;998;49.906;10.908;2022-12-10T13:08:49;2.20;99.90
1994;DHT22;998;49.906;10.908;2022-12-10T13:11:31;2.20;99.90
1994;DHT22;998;49.906;10.908;2022-12-10T13:14:29;2.20;99.90
1994;DHT22;998;49.906;10.908;2022-12-10T13:17:25;2.10;99.90
1994;DHT22;998;49.906;10.908;2022-12-10T13:19:53;2.20;99.90
1994;DHT22;998;49.906;10.908;2022-12-10T13:22:41;2.10;99.90
1994;DHT22;998;49.906;10.908;2022-12-10T13:25:13;2.20;99.90
1994;DHT22;998;49.906;10.908;2022-12-10T13:27:41;2.10;99.90
1994;DHT22;998;49.906;10.908;2022-12-10T13:30:33;2.10;99.90
1994;DHT22;998;49.906;10.908;2022-12-10T13:33:15;2.00;99.90
1994;DHT22;998;49.906;10.908;2022-12-10T13:35:50;2.10;99.90
1994;DHT22;998;49.906;10.908;2022-12-10T13:38:22;2.00;99.90
1994;DHT22;998;49.906;10.908;2022-12-10T13:41:02;2.00;99.90
1994;DHT22;998;49.906;10.908;2022-12-10T13:43:57;2.00;99.90
1994;DHT22;998;49.906;10.908;2022-12-10T13:46:58;1.90;99.90
1994;DHT22;998;49.906;10.908;2022-12-10T13:49:27;1.90;99.90
1994;DHT22;998;49.906;10.908;2022-12-10T13:52:00;1.90;99.90
1994;DHT22;998;49.906;10.908;2022-12-10T13:57:56;1.90;99.90
1994;DHT22;998;49.906;10.908;2022-12-10T14:00:34;1.90;99.90
1994;DHT22;998;49.906;10.908;2022-12-10T14:03:26;1.90;99.90
1994;DHT22;998;49.906;10.908;2022-12-10T14:06:08;2.00;99.90
1994;DHT22;998;49.906;10.908;2022-12-10T14:08:38;1.90;99.90
1994;DHT22;998;49.906;10.908;2022-12-10T14:11:13;1.90;99.90
1994;DHT22;998;49.906;10.908;2022-12-10T14:13:46;1.90;99.90
1994;DHT22;998;49.906;10.908;2022-12-10T14:16:16;1.90;99.90
1994;DHT22;998;49.906;10.908;2022-12-10T14:18:51;1.90;99.90
1994;DHT22;998;49.906;10.908;2022-12-10T14:21:20;1.90;99.90
1994;DHT22;998;49.906;10.908;2022-12-10T14:23:48;2.00;99.90
1994;DHT22;998;49.906;10.908;2022-12-10T14:26:20;2.00;99.90
1994;DHT22;998;49.906;10.908;2022-12-10T14:28:49;1.90;99.90
1994;DHT22;998;49.906;10.908;2022-12-10T14:31:18;1.90;99.90
1994;DHT22;998;49.906;10.908;2022-12-10T14:33:49;2.00;99.90
1994;DHT22;998;49.906;10.908;2022-12-10T14:36:23;2.00;99.90
1994;DHT22;998;49.906;10.908;2022-12-10T14:38:52;1.90;99.90
1994;DHT22;998;49.906;10.908;2022-12-10T14:41:22;1.90;99.90
1994;DHT22;998;49.906;10.908;2022-12-10T14:43:51;1.90;99.90
1994;DHT22;998;49.906;10.908;2022-12-10T14:46:22;1.90;99.90
1994;DHT22;998;49.906;10.908;2022-12-10T14:48:51;1.90;99.90
1994;DHT22;998;49.906;10.908;2022-12-10T14:51:22;1.80;99.90
1994;DHT22;998;49.906;10.908;2022-12-10T14:53:51;1.80;99.90
1994;DHT22;998;49.906;10.908;2022-12-10T14:56:25;1.80;99.90
1994;DHT22;998;49.906;10.908;2022-12-10T14:58:59;1.80;99.90
1994;DHT22;998;49.906;10.908;2022-12-10T15:01:30;1.80;99.90
1994;DHT22;998;49.906;10.908;2022-12-10T15:04:00;1.70;99.90
1994;DHT22;998;49.906;10.908;2022-12-10T15:06:31;1.70;99.90
1994;DHT22;998;49.906;10.908;2022-12-10T15:09:00;1.70;99.90
1994;DHT22;998;49.906;10.908;2022-12-10T15:11:30;1.80;99.90
1994;DHT22;998;49.906;10.908;2022-12-10T15:14:00;1.70;99.90
1994;DHT22;998;49.906;10.908;2022-12-10T15:16:31;1.70;99.90
1994;DHT22;998;49.906;10.908;2022-12-10T15:19:23;1.70;99.90
1994;DHT22;998;49.906;10.908;2022-12-10T15:21:56;1.70;99.90
1994;DHT22;998;49.906;10.908;2022-12-10T15:24:27;1.60;99.90
1994;DHT22;998;49.906;10.908;2022-12-10T15:26:56;1.70;99.90
1994;DHT22;998;49.906;10.908;2022-12-10T15:29:36;1.70;99.90
1994;DHT22;998;49.906;10.908;2022-12-10T15:32:11;1.70;99.90
1994;DHT22;998;49.906;10.908;2022-12-10T15:34:44;1.70;99.90
1994;DHT22;998;49.906;10.908;2022-12-10T15:37:17;1.70;99.90
1994;DHT22;998;49.906;10.908;2022-12-10T15:39:47;1.70;99.90
1994;DHT22;998;49.906;10.908;2022-12-10T15:42:35;1.70;99.90
1994;DHT22;998;49.906;10.908;2022-12-10T15:45:08;1.60;99.90
1994;DHT22;998;49.906;10.908;2022-12-10T15:47:37;1.60;99.90
1994;DHT22;998;49.906;10.908;2022-12-10T15:50:05;1.60;99.90
1994;DHT22;998;49.906;10.908;2022-12-10T15:52:32;1.60;99.90
1994;DHT22;998;49.906;10.908;2022-12-10T15:55:01;1.50;99.90
1994;DHT22;998;49.906;10.908;2022-12-10T15:57:32;1.60;99.90
1994;DHT22;998;49.906;10.908;2022-12-10T16:00:01;1.50;99.90
1994;DHT22;998;49.906;10.908;2022-12-10T16:02:36;1.50;99.90
1994;DHT22;998;49.906;10.908;2022-12-10T16:05:11;1.40;99.90
1994;DHT22;998;49.906;10.908;2022-12-10T16:07:39;1.50;99.90
1994;DHT22;998;49.906;10.908;2022-12-10T16:10:09;1.50;99.90
1994;DHT22;998;49.906;10.908;2022-12-10T16:12:38;1.40;99.90
1994;DHT22;998;49.906;10.908;2022-12-10T16:15:10;1.40;99.90
1994;DHT22;998;49.906;10.908;2022-12-10T16:17:39;1.40;99.90
1994;DHT22;998;49.906;10.908;2022-12-10T16:20:21;1.40;99.90
1994;DHT22;998;49.906;10.908;2022-12-10T16:22:49;1.40;99.90
1994;DHT22;998;49.906;10.908;2022-12-10T16:25:17;1.40;99.90
1994;DHT22;998;49.906;10.908;2022-12-10T16:27:46;1.50;99.90
1994;DHT22;998;49.906;10.908;2022-12-10T16:30:16;1.50;99.90
1994;DHT22;998;49.906;10.908;2022-12-10T16:32:44;1.50;99.90
1994;DHT22;998;49.906;10.908;2022-12-10T16:35:11;1.40;99.90
1994;DHT22;998;49.906;10.908;2022-12-10T16:37:41;1.40;99.90
1994;DHT22;998;49.906;10.908;2022-12-10T16:40:10;1.40;99.90
1994;DHT22;998;49.906;10.908;2022-12-10T16:42:38;1.40;99.90
1994;DHT22;998;49.906;10.908;2022-12-10T16:45:18;1.40;99.90
1994;DHT22;998;49.906;10.908;2022-12-10T16:47:46;1.40;99.90
1994;DHT22;998;49.906;10.908;2022-12-10T16:50:15;1.40;99.90